sensor_id;sensor_type;location;lat;lon;timestamp;temperature;humidity
68051;DHT22;54839;51.364;7.246;2023-07-20T00:01:53;15.90;99.90
68051;DHT22;54839;51.364;7.246;2023-07-20T00:04:18;15.90;99.90
68051;DHT22;54839;51.364;7.246;2023-07-20T00:06:44;16.00;99.90
68051;DHT22;54839;51.364;7.246;2023-07-20T00:09:10;16.10;99.90
68051;DHT22;54839;51.364;7.246;2023-07-20T00:11:37;16.20;99.90
68051;DHT22;54839;51.364;7.246;2023-07-20T00:14:07;16.10;99.90
68051;DHT22;54839;51.364;7.246;2023-07-20T00:16:32;16.10;99.90
68051;DHT22;54839;51.364;7.246;2023-07-20T00:18:58;16.00;99.90
68051;DHT22;54839;51.364;7.246;2023-07-20T00:21:24;15.90;99.90
68051;DHT22;54839;51.364;7.246;2023-07-20T00:23:49;16.00;99.90
68051;DHT22;54839;51.364;7.246;2023-07-20T00:26:15;16.00;99.90
68051;DHT22;54839;51.364;7.246;2023-07-20T00:28:41;16.00;99.90
68051;DHT22;54839;51.364;7.246;2023-07-20T00:31:06;16.00;99.90
68051;DHT22;54839;51.364;7.246;2023-07-20T00:33:32;15.90;99.90
68051;DHT22;54839;51.364;7.246;2023-07-20T00:35:58;15.80;99.90
68051;DHT22;54839;51.364;7.246;2023-07-20T00:38:23;15.80;99.90
68051;DHT22;54839;51.364;7.246;2023-07-20T00:40:49;15.80;99.90
68051;DHT22;54839;51.364;7.246;2023-07-20T00:43:15;15.80;99.90
68051;DHT22;54839;51.364;7.246;2023-07-20T00:45:41;15.70;99.90
68051;DHT22;54839;51.364;7.246;2023-07-20T00:48:07;15.70;99.90
68051;DHT22;54839;51.364;7.246;2023-07-20T00:50:34;15.50;99.90
68051;DHT22;54839;51.364;7.246;2023-07-20T00:53:02;15.40;99.90
68051;DHT22;54839;51.364;7.246;2023-07-20T00:55:29;15.30;99.90
68051;DHT22;54839;51.364;7.246;2023-07-20T00:57:55;15.30;99.90
68051;DHT22;54839;51.364;7.246;2023-07-20T01:00:21;15.50;99.90
68051;DHT22;54839;51.364;7.246;2023-07-20T01:02:46;15.40;99.90
68051;DHT22;54839;51.364;7.246;2023-07-20T01:05:13;15.30;99.90
68051;DHT22;54839;51.364;7.246;2023-07-20T01:08:03;15.20;99.90
68051;DHT22;54839;51.364;7.246;2023-07-20T01:10:44;15.20;99.90
68051;DHT22;54839;51.364;7.246;2023-07-20T01:13:14;15.20;99.90
68051;DHT22;54839;51.364;7.246;2023-07-20T01:15:40;15.10;99.90
68051;DHT22;54839;51.364;7.246;2023-07-20T01:18:06;15.10;99.90
68051;DHT22;54839;51.364;7.246;2023-07-20T01:20:33;15.20;99.90
68051;DHT22;54839;51.364;7.246;2023-07-20T01:31:08;15.60;99.90
68051;DHT22;54839;51.364;7.246;2023-07-20T01:33:34;15.60;99.90
68051;DHT22;54839;51.364;7.246;2023-07-20T01:36:01;15.60;99.90
68051;DHT22;54839;51.364;7.246;2023-07-20T01:38:27;15.60;99.90
68051;DHT22;54839;51.364;7.246;2023-07-20T01:40:53;15.50;99.90
68051;DHT22;54839;51.364;7.246;2023-07-20T01:43:18;15.40;99.90
68051;DHT22;54839;51.364;7.246;2023-07-20T01:45:44;15.50;99.90
68051;DHT22;54839;51.364;7.246;2023-07-20T01:48:10;15.30;99.90
68051;DHT22;54839;51.364;7.246;2023-07-20T01:50:36;15.30;99.90
68051;DHT22;54839;51.364;7.246;2023-07-20T01:53:02;15.30;99.90
68051;DHT22;54839;51.364;7.246;2023-07-20T01:55:27;15.20;99.90
68051;DHT22;54839;51.364;7.246;2023-07-20T01:57:55;15.40;99.90
68051;DHT22;54839;51.364;7.246;2023-07-20T02:00:20;15.50;99.90
68051;DHT22;54839;51.364;7.246;2023-07-20T02:02:50;15.60;99.90
68051;DHT22;54839;51.364;7.246;2023-07-20T02:05:16;15.60;99.90
68051;DHT22;54839;51.364;7.246;2023-07-20T02:07:42;15.70;99.90
68051;DHT22;54839;51.364;7.246;2023-07-20T02:10:09;15.70;99.90
68051;DHT22;54839;51.364;7.246;2023-07-20T02:12:35;15.80;99.90
68051;DHT22;54839;51.364;7.246;2023-07-20T02:15:02;15.60;99.90
68051;DHT22;54839;51.364;7.246;2023-07-20T02:17:27;15.60;99.90
68051;DHT22;54839;51.364;7.246;2023-07-20T02:19:53;15.70;99.90
68051;DHT22;54839;51.364;7.246;2023-07-20T02:22:20;15.50;99.90
68051;DHT22;54839;51.364;7.246;2023-07-20T02:24:46;15.40;99.90
68051;DHT22;54839;51.364;7.246;2023-07-20T02:27:12;15.40;99.90
68051;DHT22;54839;51.364;7.246;2023-07-20T02:29:38;15.40;99.90
68051;DHT22;54839;51.364;7.246;2023-07-20T02:32:04;15.30;99.90
68051;DHT22;54839;51.364;7.246;2023-07-20T02:34:29;15.30;99.90
68051;DHT22;54839;51.364;7.246;2023-07-20T02:36:55;15.10;99.90
68051;DHT22;54839;51.364;7.246;2023-07-20T02:39:23;15.00;99.90
68051;DHT22;54839;51.364;7.246;2023-07-20T02:41:48;15.00;99.90
68051;DHT22;54839;51.364;7.246;2023-07-20T02:44:14;15.00;99.90
68051;DHT22;54839;51.364;7.246;2023-07-20T02:46:41;15.00;99.90
68051;DHT22;54839;51.364;7.246;2023-07-20T02:49:06;14.90;99.90
68051;DHT22;54839;51.364;7.246;2023-07-20T02:51:32;14.90;99.90
68051;DHT22;54839;51.364;7.246;2023-07-20T02:53:58;15.00;99.90
68051;DHT22;54839;51.364;7.246;2023-07-20T02:56:24;15.00;99.90
68051;DHT22;54839;51.364;7.246;2023-07-20T02:58:50;15.00;99.90
68051;DHT22;54839;51.364;7.246;2023-07-20T03:01:16;14.90;99.90
68051;DHT22;54839;51.364;7.246;2023-07-20T03:03:42;15.00;99.90
68051;DHT22;54839;51.364;7.246;2023-07-20T03:06:15;15.00;99.90
68051;DHT22;54839;51.364;7.246;2023-07-20T03:08:42;14.90;99.90
68051;DHT22;54839;51.364;7.246;2023-07-20T03:11:10;14.90;99.90
68051;DHT22;54839;51.364;7.246;2023-07-20T03:13:36;14.90;99.90
68051;DHT22;54839;51.364;7.246;2023-07-20T03:16:02;14.90;99.90
68051;DHT22;54839;51.364;7.246;2023-07-20T03:18:27;15.00;99.90
68051;DHT22;54839;51.364;7.246;2023-07-20T03:20:53;15.00;99.90
68051;DHT22;54839;51.364;7.246;2023-07-20T03:23:19;15.00;99.90
68051;DHT22;54839;51.364;7.246;2023-07-20T03:25:44;15.10;99.90
68051;DHT22;54839;51.364;7.246;2023-07-20T03:28:10;15.20;99.90
68051;DHT22;54839;51.364;7.246;2023-07-20T03:30:35;15.20;99.90
68051;DHT22;54839;51.364;7.246;2023-07-20T03:33:02;15.20;99.90
68051;DHT22;54839;51.364;7.246;2023-07-20T03:35:28;15.20;99.90
68051;DHT22;54839;51.364;7.246;2023-07-20T03:37:54;15.30;99.90
68051;DHT22;54839;51.364;7.246;2023-07-20T03:40:19;15.30;99.90
68051;DHT22;54839;51.364;7.246;2023-07-20T03:42:46;15.30;99.90
68051;DHT22;54839;51.364;7.246;2023-07-20T03:45:11;15.30;99.90
68051;DHT22;54839;51.364;7.246;2023-07-20T03:47:37;15.30;99.90
68051;DHT22;54839;51.364;7.246;2023-07-20T03:50:03;15.40;99.90
68051;DHT22;54839;51.364;7.246;2023-07-20T03:52:31;15.30;99.90
68051;DHT22;54839;51.364;7.246;2023-07-20T03:54:56;15.20;99.90
68051;DHT22;54839;51.364;7.246;2023-07-20T03:57:22;15.10;99.90
68051;DHT22;54839;51.364;7.246;2023-07-20T03:59:48;15.00;99.90
68051;DHT22;54839;51.364;7.246;2023-07-20T04:02:14;15.00;99.90
68051;DHT22;54839;51.364;7.246;2023-07-20T04:04:40;15.00;99.90
68051;DHT22;54839;51.364;7.246;2023-07-20T04:07:05;15.00;99.90
68051;DHT22;54839;51.364;7.246;2023-07-20T04:09:32;15.00;99.90
68051;DHT22;54839;51.364;7.246;2023-07-20T04:11:58;15.10;99.90
68051;DHT22;54839;51.364;7.246;2023-07-20T04:14:24;15.10;99.90
68051;DHT22;54839;51.364;7.246;2023-07-20T04:16:49;15.30;99.90
68051;DHT22;54839;51.364;7.246;2023-07-20T04:19:16;15.10;99.90
68051;DHT22;54839;51.364;7.246;2023-07-20T04:21:43;15.10;99.90
68051;DHT22;54839;51.364;7.246;2023-07-20T04:24:09;15.20;99.90
68051;DHT22;54839;51.364;7.246;2023-07-20T04:26:34;15.10;99.90
68051;DHT22;54839;51.364;7.246;2023-07-20T04:29:01;15.20;99.90
68051;DHT22;54839;51.364;7.246;2023-07-20T04:31:27;15.20;99.90
68051;DHT22;54839;51.364;7.246;2023-07-20T04:33:53;15.20;99.90
68051;DHT22;54839;51.364;7.246;2023-07-20T04:36:19;15.30;99.90
68051;DHT22;54839;51.364;7.246;2023-07-20T04:38:48;15.30;99.90
68051;DHT22;54839;51.364;7.246;2023-07-20T04:41:13;15.40;99.90
68051;DHT22;54839;51.364;7.246;2023-07-20T04:43:43;15.40;99.90
68051;DHT22;54839;51.364;7.246;2023-07-20T04:46:10;15.30;99.90
68051;DHT22;54839;51.364;7.246;2023-07-20T04:48:36;15.40;99.90
68051;DHT22;54839;51.364;7.246;2023-07-20T04:51:02;15.40;99.90
68051;DHT22;54839;51.364;7.246;2023-07-20T04:53:27;15.40;99.90
68051;DHT22;54839;51.364;7.246;2023-07-20T04:55:53;15.50;99.90
68051;DHT22;54839;51.364;7.246;2023-07-20T04:58:20;15.40;99.90
68051;DHT22;54839;51.364;7.246;2023-07-20T05:00:48;15.60;99.90
68051;DHT22;54839;51.364;7.246;2023-07-20T05:03:14;15.60;99.90
68051;DHT22;54839;51.364;7.246;2023-07-20T05:05:40;15.60;99.90
68051;DHT22;54839;51.364;7.246;2023-07-20T05:08:06;15.40;99.90
68051;DHT22;54839;51.364;7.246;2023-07-20T05:10:31;15.50;99.90
68051;DHT22;54839;51.364;7.246;2023-07-20T05:12:58;15.60;99.90
68051;DHT22;54839;51.364;7.246;2023-07-20T05:15:24;15.40;99.90
68051;DHT22;54839;51.364;7.246;2023-07-20T05:17:51;15.40;99.90
68051;DHT22;54839;51.364;7.246;2023-07-20T05:20:17;15.60;99.90
68051;DHT22;54839;51.364;7.246;2023-07-20T05:22:43;15.70;99.90
68051;DHT22;54839;51.364;7.246;2023-07-20T05:25:10;15.70;99.90
68051;DHT22;54839;51.364;7.246;2023-07-20T05:27:37;15.60;99.90
68051;DHT22;54839;51.364;7.246;2023-07-20T05:30:03;15.30;99.90
68051;DHT22;54839;51.364;7.246;2023-07-20T05:32:29;15.40;99.90
68051;DHT22;54839;51.364;7.246;2023-07-20T05:34:55;15.50;99.90
68051;DHT22;54839;51.364;7.246;2023-07-20T05:37:21;15.70;99.90
68051;DHT22;54839;51.364;7.246;2023-07-20T05:39:47;15.90;99.90
68051;DHT22;54839;51.364;7.246;2023-07-20T05:42:12;16.10;99.90
68051;DHT22;54839;51.364;7.246;2023-07-20T05:44:39;16.10;99.90
68051;DHT22;54839;51.364;7.246;2023-07-20T05:47:05;16.10;99.90
68051;DHT22;54839;51.364;7.246;2023-07-20T05:49:31;16.10;99.90
68051;DHT22;54839;51.364;7.246;2023-07-20T05:51:57;16.00;99.90
68051;DHT22;54839;51.364;7.246;2023-07-20T05:54:26;16.00;99.90
68051;DHT22;54839;51.364;7.246;2023-07-20T05:56:52;16.00;99.90
68051;DHT22;54839;51.364;7.246;2023-07-20T05:59:18;15.90;99.90
68051;DHT22;54839;51.364;7.246;2023-07-20T06:01:45;16.10;99.90
68051;DHT22;54839;51.364;7.246;2023-07-20T06:04:10;16.10;99.90
68051;DHT22;54839;51.364;7.246;2023-07-20T06:06:36;16.00;99.90
68051;DHT22;54839;51.364;7.246;2023-07-20T06:09:02;16.10;99.90
68051;DHT22;54839;51.364;7.246;2023-07-20T06:11:35;16.30;99.90
68051;DHT22;54839;51.364;7.246;2023-07-20T06:14:01;16.50;99.90
68051;DHT22;54839;51.364;7.246;2023-07-20T06:16:26;16.60;99.90
68051;DHT22;54839;51.364;7.246;2023-07-20T06:18:52;16.70;99.90
68051;DHT22;54839;51.364;7.246;2023-07-20T06:21:18;16.80;99.90
68051;DHT22;54839;51.364;7.246;2023-07-20T06:23:43;16.90;99.90
68051;DHT22;54839;51.364;7.246;2023-07-20T06:26:09;17.20;99.90
68051;DHT22;54839;51.364;7.246;2023-07-20T06:28:35;17.10;99.90
68051;DHT22;54839;51.364;7.246;2023-07-20T06:31:02;17.20;99.90
68051;DHT22;54839;51.364;7.246;2023-07-20T06:33:28;17.30;99.90
68051;DHT22;54839;51.364;7.246;2023-07-20T06:35:54;17.30;99.90
68051;DHT22;54839;51.364;7.246;2023-07-20T06:38:19;17.70;99.90
68051;DHT22;54839;51.364;7.246;2023-07-20T06:40:49;17.40;99.90
68051;DHT22;54839;51.364;7.246;2023-07-20T06:43:16;17.10;99.90
68051;DHT22;54839;51.364;7.246;2023-07-20T06:45:42;17.10;99.90
68051;DHT22;54839;51.364;7.246;2023-07-20T06:48:08;17.10;99.90
68051;DHT22;54839;51.364;7.246;2023-07-20T06:50:33;17.20;99.90
68051;DHT22;54839;51.364;7.246;2023-07-20T06:52:59;17.50;99.90
68051;DHT22;54839;51.364;7.246;2023-07-20T06:55:28;17.70;99.90
68051;DHT22;54839;51.364;7.246;2023-07-20T06:57:54;17.90;99.90
68051;DHT22;54839;51.364;7.246;2023-07-20T07:00:20;17.50;99.90
68051;DHT22;54839;51.364;7.246;2023-07-20T07:02:45;17.50;99.90
68051;DHT22;54839;51.364;7.246;2023-07-20T07:05:11;17.80;99.90
68051;DHT22;54839;51.364;7.246;2023-07-20T07:07:38;17.50;99.90
68051;DHT22;54839;51.364;7.246;2023-07-20T07:10:05;17.70;99.90
68051;DHT22;54839;51.364;7.246;2023-07-20T07:12:31;17.80;99.90
68051;DHT22;54839;51.364;7.246;2023-07-20T07:14:57;17.90;99.90
68051;DHT22;54839;51.364;7.246;2023-07-20T07:17:23;18.20;99.90
68051;DHT22;54839;51.364;7.246;2023-07-20T07:19:49;18.40;99.90
68051;DHT22;54839;51.364;7.246;2023-07-20T07:22:14;18.70;99.90
68051;DHT22;54839;51.364;7.246;2023-07-20T07:24:40;19.10;99.90
68051;DHT22;54839;51.364;7.246;2023-07-20T07:27:08;19.50;99.90
68051;DHT22;54839;51.364;7.246;2023-07-20T07:29:34;19.40;99.90
68051;DHT22;54839;51.364;7.246;2023-07-20T07:32:00;18.90;99.90
68051;DHT22;54839;51.364;7.246;2023-07-20T07:34:26;18.50;99.90
68051;DHT22;54839;51.364;7.246;2023-07-20T07:36:51;18.40;99.90
68051;DHT22;54839;51.364;7.246;2023-07-20T07:39:17;18.00;99.90
68051;DHT22;54839;51.364;7.246;2023-07-20T07:41:43;17.90;99.90
68051;DHT22;54839;51.364;7.246;2023-07-20T07:44:08;17.80;99.90
68051;DHT22;54839;51.364;7.246;2023-07-20T07:46:34;17.80;99.90
68051;DHT22;54839;51.364;7.246;2023-07-20T07:48:59;17.80;99.90
68051;DHT22;54839;51.364;7.246;2023-07-20T07:51:25;18.10;99.90
68051;DHT22;54839;51.364;7.246;2023-07-20T07:53:52;18.20;99.90
68051;DHT22;54839;51.364;7.246;2023-07-20T07:56:18;18.00;99.90
68051;DHT22;54839;51.364;7.246;2023-07-20T07:58:51;17.90;99.90
68051;DHT22;54839;51.364;7.246;2023-07-20T08:01:20;17.80;99.90
68051;DHT22;54839;51.364;7.246;2023-07-20T08:03:45;18.00;99.90
68051;DHT22;54839;51.364;7.246;2023-07-20T08:06:13;17.90;99.90
68051;DHT22;54839;51.364;7.246;2023-07-20T08:08:39;18.40;99.90
68051;DHT22;54839;51.364;7.246;2023-07-20T08:11:05;18.80;99.90
68051;DHT22;54839;51.364;7.246;2023-07-20T08:13:30;19.20;99.90
68051;DHT22;54839;51.364;7.246;2023-07-20T08:15:57;19.40;99.90
68051;DHT22;54839;51.364;7.246;2023-07-20T08:18:23;19.60;99.90
68051;DHT22;54839;51.364;7.246;2023-07-20T08:20:51;19.80;99.90
68051;DHT22;54839;51.364;7.246;2023-07-20T08:23:16;19.50;99.90
68051;DHT22;54839;51.364;7.246;2023-07-20T08:25:42;18.90;99.90
68051;DHT22;54839;51.364;7.246;2023-07-20T08:28:10;18.40;99.90
68051;DHT22;54839;51.364;7.246;2023-07-20T08:30:40;18.10;99.90
68051;DHT22;54839;51.364;7.246;2023-07-20T08:33:07;17.90;99.90
68051;DHT22;54839;51.364;7.246;2023-07-20T08:35:33;18.10;99.90
68051;DHT22;54839;51.364;7.246;2023-07-20T08:37:59;18.10;99.90
68051;DHT22;54839;51.364;7.246;2023-07-20T08:40:24;18.00;99.90
68051;DHT22;54839;51.364;7.246;2023-07-20T08:42:50;18.60;99.90
68051;DHT22;54839;51.364;7.246;2023-07-20T08:45:17;19.20;99.90
68051;DHT22;54839;51.364;7.246;2023-07-20T08:47:44;19.40;99.90
68051;DHT22;54839;51.364;7.246;2023-07-20T08:50:11;19.70;99.90
68051;DHT22;54839;51.364;7.246;2023-07-20T08:52:38;19.90;99.90
68051;DHT22;54839;51.364;7.246;2023-07-20T08:55:04;19.80;99.90
68051;DHT22;54839;51.364;7.246;2023-07-20T08:57:33;19.60;99.90
68051;DHT22;54839;51.364;7.246;2023-07-20T09:00:01;19.70;99.90
68051;DHT22;54839;51.364;7.246;2023-07-20T09:02:30;19.90;99.90
68051;DHT22;54839;51.364;7.246;2023-07-20T09:05:03;20.60;99.90
68051;DHT22;54839;51.364;7.246;2023-07-20T09:07:31;20.80;99.90
68051;DHT22;54839;51.364;7.246;2023-07-20T09:09:57;21.10;99.90
68051;DHT22;54839;51.364;7.246;2023-07-20T09:12:23;21.40;99.90
68051;DHT22;54839;51.364;7.246;2023-07-20T09:14:49;21.10;99.90
68051;DHT22;54839;51.364;7.246;2023-07-20T09:17:15;20.80;99.90
68051;DHT22;54839;51.364;7.246;2023-07-20T09:19:48;20.50;99.90
68051;DHT22;54839;51.364;7.246;2023-07-20T09:22:13;20.40;99.90
68051;DHT22;54839;51.364;7.246;2023-07-20T09:24:39;20.10;99.90
68051;DHT22;54839;51.364;7.246;2023-07-20T09:27:07;20.10;99.90
68051;DHT22;54839;51.364;7.246;2023-07-20T09:29:32;20.20;99.90
68051;DHT22;54839;51.364;7.246;2023-07-20T09:32:02;20.30;99.90
68051;DHT22;54839;51.364;7.246;2023-07-20T09:34:30;20.30;99.90
68051;DHT22;54839;51.364;7.246;2023-07-20T09:36:59;20.70;99.90
68051;DHT22;54839;51.364;7.246;2023-07-20T09:39:26;20.90;99.90
68051;DHT22;54839;51.364;7.246;2023-07-20T09:41:52;20.60;99.90
68051;DHT22;54839;51.364;7.246;2023-07-20T09:44:19;20.40;99.90
68051;DHT22;54839;51.364;7.246;2023-07-20T09:46:49;20.50;99.90
68051;DHT22;54839;51.364;7.246;2023-07-20T09:49:17;20.30;99.90
68051;DHT22;54839;51.364;7.246;2023-07-20T09:51:44;20.40;99.90
68051;DHT22;54839;51.364;7.246;2023-07-20T09:54:10;20.10;99.90
68051;DHT22;54839;51.364;7.246;2023-07-20T09:56:38;19.90;99.90
68051;DHT22;54839;51.364;7.246;2023-07-20T09:59:05;19.70;99.90
68051;DHT22;54839;51.364;7.246;2023-07-20T10:01:32;19.30;99.90
68051;DHT22;54839;51.364;7.246;2023-07-20T10:04:03;19.70;99.90
68051;DHT22;54839;51.364;7.246;2023-07-20T10:06:32;19.50;99.90
68051;DHT22;54839;51.364;7.246;2023-07-20T10:09:01;19.90;99.90
68051;DHT22;54839;51.364;7.246;2023-07-20T10:11:30;19.80;99.90
68051;DHT22;54839;51.364;7.246;2023-07-20T10:13:58;19.90;99.90
68051;DHT22;54839;51.364;7.246;2023-07-20T10:16:35;20.40;99.90
68051;DHT22;54839;51.364;7.246;2023-07-20T10:21:48;20.30;99.90
68051;DHT22;54839;51.364;7.246;2023-07-20T10:24:17;20.50;99.90
68051;DHT22;54839;51.364;7.246;2023-07-20T10:26:43;21.00;99.90
68051;DHT22;54839;51.364;7.246;2023-07-20T10:29:09;21.20;99.90
68051;DHT22;54839;51.364;7.246;2023-07-20T10:31:36;21.70;99.90
68051;DHT22;54839;51.364;7.246;2023-07-20T10:34:03;22.20;99.90
68051;DHT22;54839;51.364;7.246;2023-07-20T10:36:29;22.30;99.90
68051;DHT22;54839;51.364;7.246;2023-07-20T10:38:56;22.40;99.90
68051;DHT22;54839;51.364;7.246;2023-07-20T10:41:29;22.40;99.90
68051;DHT22;54839;51.364;7.246;2023-07-20T10:44:04;22.30;99.90
68051;DHT22;54839;51.364;7.246;2023-07-20T10:46:43;22.00;99.90
68051;DHT22;54839;51.364;7.246;2023-07-20T10:49:10;21.60;99.90
68051;DHT22;54839;51.364;7.246;2023-07-20T10:51:44;21.40;99.90
68051;DHT22;54839;51.364;7.246;2023-07-20T10:56:47;21.00;99.90
68051;DHT22;54839;51.364;7.246;2023-07-20T11:01:55;21.20;99.90
68051;DHT22;54839;51.364;7.246;2023-07-20T11:04:38;21.60;99.90
68051;DHT22;54839;51.364;7.246;2023-07-20T11:07:05;21.70;99.90
68051;DHT22;54839;51.364;7.246;2023-07-20T11:09:35;21.70;99.90
68051;DHT22;54839;51.364;7.246;2023-07-20T11:12:14;21.80;99.90
68051;DHT22;54839;51.364;7.246;2023-07-20T11:14:54;21.50;99.90
68051;DHT22;54839;51.364;7.246;2023-07-20T11:17:29;21.80;99.90
68051;DHT22;54839;51.364;7.246;2023-07-20T11:19:56;22.00;99.90
68051;DHT22;54839;51.364;7.246;2023-07-20T11:22:22;22.30;99.90
68051;DHT22;54839;51.364;7.246;2023-07-20T11:24:48;22.30;99.90
68051;DHT22;54839;51.364;7.246;2023-07-20T11:27:17;22.90;99.90
68051;DHT22;54839;51.364;7.246;2023-07-20T11:29:48;23.20;99.90
68051;DHT22;54839;51.364;7.246;2023-07-20T11:32:23;23.20;99.90
68051;DHT22;54839;51.364;7.246;2023-07-20T11:34:49;23.50;99.90
68051;DHT22;54839;51.364;7.246;2023-07-20T11:37:15;23.50;99.90
68051;DHT22;54839;51.364;7.246;2023-07-20T11:39:42;23.20;99.90
68051;DHT22;54839;51.364;7.246;2023-07-20T11:42:08;22.80;99.90
68051;DHT22;54839;51.364;7.246;2023-07-20T11:44:36;22.60;99.90
68051;DHT22;54839;51.364;7.246;2023-07-20T11:47:05;22.80;99.90
68051;DHT22;54839;51.364;7.246;2023-07-20T11:49:35;22.90;99.90
68051;DHT22;54839;51.364;7.246;2023-07-20T11:52:07;22.50;99.90
68051;DHT22;54839;51.364;7.246;2023-07-20T11:54:40;22.40;99.90
68051;DHT22;54839;51.364;7.246;2023-07-20T11:57:07;22.20;99.90
68051;DHT22;54839;51.364;7.246;2023-07-20T11:59:33;21.90;99.90
68051;DHT22;54839;51.364;7.246;2023-07-20T12:02:01;22.10;99.90
68051;DHT22;54839;51.364;7.246;2023-07-20T12:04:28;22.30;99.90
68051;DHT22;54839;51.364;7.246;2023-07-20T12:06:54;22.80;99.90
68051;DHT22;54839;51.364;7.246;2023-07-20T12:09:21;22.90;99.90
68051;DHT22;54839;51.364;7.246;2023-07-20T12:11:49;23.50;99.90
68051;DHT22;54839;51.364;7.246;2023-07-20T12:14:15;23.60;99.90
68051;DHT22;54839;51.364;7.246;2023-07-20T12:16:41;23.70;99.90
68051;DHT22;54839;51.364;7.246;2023-07-20T12:19:08;23.90;99.90
68051;DHT22;54839;51.364;7.246;2023-07-20T12:21:39;23.80;99.90
68051;DHT22;54839;51.364;7.246;2023-07-20T12:24:07;23.80;99.90
68051;DHT22;54839;51.364;7.246;2023-07-20T12:26:34;23.80;99.90
68051;DHT22;54839;51.364;7.246;2023-07-20T12:29:00;23.60;99.90
68051;DHT22;54839;51.364;7.246;2023-07-20T12:31:27;24.00;99.90
68051;DHT22;54839;51.364;7.246;2023-07-20T12:33:54;24.30;99.90
68051;DHT22;54839;51.364;7.246;2023-07-20T12:36:22;24.60;99.90
68051;DHT22;54839;51.364;7.246;2023-07-20T12:38:48;24.20;99.90
68051;DHT22;54839;51.364;7.246;2023-07-20T12:41:14;24.20;99.90
68051;DHT22;54839;51.364;7.246;2023-07-20T12:43:43;24.30;99.90
68051;DHT22;54839;51.364;7.246;2023-07-20T12:46:10;24.30;99.90
68051;DHT22;54839;51.364;7.246;2023-07-20T12:48:37;23.30;99.90
68051;DHT22;54839;51.364;7.246;2023-07-20T12:51:04;23.60;99.90
68051;DHT22;54839;51.364;7.246;2023-07-20T12:53:31;23.10;99.90
68051;DHT22;54839;51.364;7.246;2023-07-20T12:55:57;23.00;99.90
68051;DHT22;54839;51.364;7.246;2023-07-20T12:58:23;23.20;99.90
68051;DHT22;54839;51.364;7.246;2023-07-20T13:00:49;23.80;99.90
68051;DHT22;54839;51.364;7.246;2023-07-20T13:03:15;23.50;99.90
68051;DHT22;54839;51.364;7.246;2023-07-20T13:05:41;25.40;99.90
68051;DHT22;54839;51.364;7.246;2023-07-20T13:08:07;26.90;99.00
68051;DHT22;54839;51.364;7.246;2023-07-20T13:10:36;28.50;98.00
68051;DHT22;54839;51.364;7.246;2023-07-20T13:13:01;30.10;94.00
68051;DHT22;54839;51.364;7.246;2023-07-20T13:15:32;30.30;92.90
68051;DHT22;54839;51.364;7.246;2023-07-20T13:17:58;30.20;83.00
68051;DHT22;54839;51.364;7.246;2023-07-20T13:20:25;31.60;79.30
68051;DHT22;54839;51.364;7.246;2023-07-20T13:22:51;32.10;78.80
68051;DHT22;54839;51.364;7.246;2023-07-20T13:25:17;30.70;76.40
68051;DHT22;54839;51.364;7.246;2023-07-20T13:27:44;28.60;78.20
68051;DHT22;54839;51.364;7.246;2023-07-20T13:30:10;26.80;81.60
68051;DHT22;54839;51.364;7.246;2023-07-20T13:32:42;24.60;84.60
68051;DHT22;54839;51.364;7.246;2023-07-20T13:35:08;24.30;88.50
68051;DHT22;54839;51.364;7.246;2023-07-20T13:37:34;24.10;90.30
68051;DHT22;54839;51.364;7.246;2023-07-20T13:39:59;23.60;91.10
68051;DHT22;54839;51.364;7.246;2023-07-20T13:42:25;23.30;91.90
68051;DHT22;54839;51.364;7.246;2023-07-20T13:44:51;23.00;92.50
68051;DHT22;54839;51.364;7.246;2023-07-20T13:47:17;22.80;92.60
68051;DHT22;54839;51.364;7.246;2023-07-20T13:49:43;22.80;93.30
68051;DHT22;54839;51.364;7.246;2023-07-20T13:52:09;22.70;93.90
68051;DHT22;54839;51.364;7.246;2023-07-20T13:54:35;22.80;94.40
68051;DHT22;54839;51.364;7.246;2023-07-20T13:57:00;23.10;94.90
68051;DHT22;54839;51.364;7.246;2023-07-20T13:59:26;23.00;94.10
68051;DHT22;54839;51.364;7.246;2023-07-20T14:01:52;23.00;93.90
68051;DHT22;54839;51.364;7.246;2023-07-20T14:04:17;23.40;94.10
68051;DHT22;54839;51.364;7.246;2023-07-20T14:06:44;24.00;93.80
68051;DHT22;54839;51.364;7.246;2023-07-20T14:09:09;24.60;93.10
68051;DHT22;54839;51.364;7.246;2023-07-20T14:11:35;25.10;92.50
68051;DHT22;54839;51.364;7.246;2023-07-20T14:14:01;25.20;92.20
68051;DHT22;54839;51.364;7.246;2023-07-20T14:16:26;26.70;92.10
68051;DHT22;54839;51.364;7.246;2023-07-20T14:18:52;27.80;90.40
68051;DHT22;54839;51.364;7.246;2023-07-20T14:21:19;27.30;89.40
68051;DHT22;54839;51.364;7.246;2023-07-20T14:23:50;26.60;89.50
68051;DHT22;54839;51.364;7.246;2023-07-20T14:26:16;26.20;89.40
68051;DHT22;54839;51.364;7.246;2023-07-20T14:28:42;27.20;88.80
68051;DHT22;54839;51.364;7.246;2023-07-20T14:31:07;29.10;85.60
68051;DHT22;54839;51.364;7.246;2023-07-20T14:33:33;30.30;75.00
68051;DHT22;54839;51.364;7.246;2023-07-20T14:35:59;32.10;74.10
68051;DHT22;54839;51.364;7.246;2023-07-20T14:38:27;31.90;68.80
68051;DHT22;54839;51.364;7.246;2023-07-20T14:40:53;31.60;69.20
68051;DHT22;54839;51.364;7.246;2023-07-20T14:43:19;29.90;71.60
68051;DHT22;54839;51.364;7.246;2023-07-20T14:45:45;28.70;74.30
68051;DHT22;54839;51.364;7.246;2023-07-20T14:48:11;28.00;75.30
68051;DHT22;54839;51.364;7.246;2023-07-20T14:50:36;27.50;76.20
68051;DHT22;54839;51.364;7.246;2023-07-20T14:53:02;27.10;77.20
68051;DHT22;54839;51.364;7.246;2023-07-20T14:55:28;26.50;76.80
68051;DHT22;54839;51.364;7.246;2023-07-20T14:57:54;25.20;76.20
68051;DHT22;54839;51.364;7.246;2023-07-20T15:00:20;25.00;76.70
68051;DHT22;54839;51.364;7.246;2023-07-20T15:02:46;23.90;77.10
68051;DHT22;54839;51.364;7.246;2023-07-20T15:05:11;24.90;79.70
68051;DHT22;54839;51.364;7.246;2023-07-20T15:07:37;25.30;78.50
68051;DHT22;54839;51.364;7.246;2023-07-20T15:10:04;24.90;80.80
68051;DHT22;54839;51.364;7.246;2023-07-20T15:12:30;26.40;79.80
68051;DHT22;54839;51.364;7.246;2023-07-20T15:15:10;27.10;77.80
68051;DHT22;54839;51.364;7.246;2023-07-20T15:17:38;27.90;75.00
68051;DHT22;54839;51.364;7.246;2023-07-20T15:20:06;30.70;73.90
68051;DHT22;54839;51.364;7.246;2023-07-20T15:22:35;33.40;69.10
68051;DHT22;54839;51.364;7.246;2023-07-20T15:25:08;35.50;64.30
68051;DHT22;54839;51.364;7.246;2023-07-20T15:27:37;34.10;58.10
68051;DHT22;54839;51.364;7.246;2023-07-20T15:30:03;36.00;56.50
68051;DHT22;54839;51.364;7.246;2023-07-20T15:32:28;35.00;57.50
68051;DHT22;54839;51.364;7.246;2023-07-20T15:34:54;31.50;59.10
68051;DHT22;54839;51.364;7.246;2023-07-20T15:37:20;29.50;61.00
68051;DHT22;54839;51.364;7.246;2023-07-20T15:39:49;29.00;63.40
68051;DHT22;54839;51.364;7.246;2023-07-20T15:42:15;27.80;64.00
68051;DHT22;54839;51.364;7.246;2023-07-20T15:44:40;27.30;64.30